sensor_id;sensor_type;location;lat;lon;timestamp;P1;durP1;ratioP1;P2;durP2;ratioP2
9964;SDS011;5023;53.554;9.964;2023-06-26T00:04:12;13.60;;;12.50;;
9964;SDS011;5023;53.554;9.964;2023-06-26T00:09:16;12.30;;;11.20;;
9964;SDS011;5023;53.554;9.964;2023-06-26T00:14:18;12.27;;;11.27;;
9964;SDS011;5023;53.554;9.964;2023-06-26T00:19:20;11.50;;;10.55;;
9964;SDS011;5023;53.554;9.964;2023-06-26T00:24:24;11.82;;;10.82;;
9964;SDS011;5023;53.554;9.964;2023-06-26T00:29:26;11.93;;;10.82;;
9964;SDS011;5023;53.554;9.964;2023-06-26T00:34:28;15.30;;;14.10;;
9964;SDS011;5023;53.554;9.964;2023-06-26T00:39:31;14.13;;;13.02;;
9964;SDS011;5023;53.554;9.964;2023-06-26T00:44:33;12.05;;;11.05;;
9964;SDS011;5023;53.554;9.964;2023-06-26T00:49:35;10.85;;;10.02;;
9964;SDS011;5023;53.554;9.964;2023-06-26T00:54:39;12.60;;;11.50;;
9964;SDS011;5023;53.554;9.964;2023-06-26T00:59:41;12.90;;;11.77;;
9964;SDS011;5023;53.554;9.964;2023-06-26T01:04:43;10.63;;;9.82;;
9964;SDS011;5023;53.554;9.964;2023-06-26T01:09:48;10.80;;;10.00;;
9964;SDS011;5023;53.554;9.964;2023-06-26T01:14:50;11.75;;;10.75;;
9964;SDS011;5023;53.554;9.964;2023-06-26T01:19:52;12.05;;;10.95;;
9964;SDS011;5023;53.554;9.964;2023-06-26T01:25:02;13.48;;;12.27;;
9964;SDS011;5023;53.554;9.964;2023-06-26T01:30:13;12.38;;;11.38;;
9964;SDS011;5023;53.554;9.964;2023-06-26T01:35:17;10.77;;;9.88;;
9964;SDS011;5023;53.554;9.964;2023-06-26T01:40:19;11.85;;;10.70;;
9964;SDS011;5023;53.554;9.964;2023-06-26T01:45:24;13.13;;;12.07;;
9964;SDS011;5023;53.554;9.964;2023-06-26T01:50:28;11.27;;;10.38;;
9964;SDS011;5023;53.554;9.964;2023-06-26T01:55:35;11.23;;;10.43;;
9964;SDS011;5023;53.554;9.964;2023-06-26T02:00:48;11.35;;;10.40;;
9964;SDS011;5023;53.554;9.964;2023-06-26T02:05:50;10.95;;;10.05;;
9964;SDS011;5023;53.554;9.964;2023-06-26T02:10:52;11.82;;;10.82;;
9964;SDS011;5023;53.554;9.964;2023-06-26T02:15:55;11.15;;;10.25;;
9964;SDS011;5023;53.554;9.964;2023-06-26T02:20:58;10.18;;;9.38;;
9964;SDS011;5023;53.554;9.964;2023-06-26T02:26:00;11.85;;;10.88;;
9964;SDS011;5023;53.554;9.964;2023-06-26T02:31:03;12.27;;;11.18;;
9964;SDS011;5023;53.554;9.964;2023-06-26T02:36:05;11.32;;;10.32;;
9964;SDS011;5023;53.554;9.964;2023-06-26T02:41:07;11.95;;;10.95;;
9964;SDS011;5023;53.554;9.964;2023-06-26T02:46:11;12.18;;;11.07;;
9964;SDS011;5023;53.554;9.964;2023-06-26T02:51:13;13.57;;;12.27;;
9964;SDS011;5023;53.554;9.964;2023-06-26T02:56:15;11.45;;;10.45;;
9964;SDS011;5023;53.554;9.964;2023-06-26T03:01:18;12.02;;;11.02;;
9964;SDS011;5023;53.554;9.964;2023-06-26T03:06:20;14.38;;;13.07;;
9964;SDS011;5023;53.554;9.964;2023-06-26T03:11:22;12.40;;;11.40;;
9964;SDS011;5023;53.554;9.964;2023-06-26T03:16:26;11.60;;;10.60;;
9964;SDS011;5023;53.554;9.964;2023-06-26T03:21:27;10.85;;;9.93;;
9964;SDS011;5023;53.554;9.964;2023-06-26T03:26:30;11.80;;;10.75;;
9964;SDS011;5023;53.554;9.964;2023-06-26T03:31:34;10.82;;;10.02;;
9964;SDS011;5023;53.554;9.964;2023-06-26T03:36:36;11.13;;;10.23;;
9964;SDS011;5023;53.554;9.964;2023-06-26T03:41:37;11.25;;;10.35;;
9964;SDS011;5023;53.554;9.964;2023-06-26T03:46:41;9.73;;;9.02;;
9964;SDS011;5023;53.554;9.964;2023-06-26T03:51:43;10.68;;;9.88;;
9964;SDS011;5023;53.554;9.964;2023-06-26T03:56:45;11.02;;;10.02;;
9964;SDS011;5023;53.554;9.964;2023-06-26T04:01:48;10.43;;;9.52;;
9964;SDS011;5023;53.554;9.964;2023-06-26T04:06:50;10.02;;;9.15;;
9964;SDS011;5023;53.554;9.964;2023-06-26T04:11:52;10.63;;;9.73;;
9964;SDS011;5023;53.554;9.964;2023-06-26T04:16:56;10.95;;;9.98;;
9964;SDS011;5023;53.554;9.964;2023-06-26T04:22:00;10.27;;;9.43;;
9964;SDS011;5023;53.554;9.964;2023-06-26T04:27:02;10.43;;;9.52;;
9964;SDS011;5023;53.554;9.964;2023-06-26T04:32:07;10.43;;;9.63;;
9964;SDS011;5023;53.554;9.964;2023-06-26T04:37:09;11.48;;;10.48;;
9964;SDS011;5023;53.554;9.964;2023-06-26T04:42:11;11.15;;;10.27;;
9964;SDS011;5023;53.554;9.964;2023-06-26T04:47:14;11.40;;;10.40;;
9964;SDS011;5023;53.554;9.964;2023-06-26T04:52:16;10.68;;;9.88;;
9964;SDS011;5023;53.554;9.964;2023-06-26T04:57:18;11.10;;;10.20;;
9964;SDS011;5023;53.554;9.964;2023-06-26T05:02:22;10.50;;;9.70;;
9964;SDS011;5023;53.554;9.964;2023-06-26T05:07:24;11.10;;;9.52;;
9964;SDS011;5023;53.554;9.964;2023-06-26T05:12:26;10.68;;;9.88;;
9964;SDS011;5023;53.554;9.964;2023-06-26T05:17:29;11.40;;;10.30;;
9964;SDS011;5023;53.554;9.964;2023-06-26T05:22:31;11.82;;;10.75;;
9964;SDS011;5023;53.554;9.964;2023-06-26T05:27:35;10.68;;;9.77;;
9964;SDS011;5023;53.554;9.964;2023-06-26T05:32:39;11.02;;;10.07;;
9964;SDS011;5023;53.554;9.964;2023-06-26T05:37:42;10.38;;;9.57;;
9964;SDS011;5023;53.554;9.964;2023-06-26T05:42:44;11.60;;;10.38;;
9964;SDS011;5023;53.554;9.964;2023-06-26T05:47:52;11.38;;;10.27;;
9964;SDS011;5023;53.554;9.964;2023-06-26T05:52:54;10.45;;;9.40;;
9964;SDS011;5023;53.554;9.964;2023-06-26T05:57:57;11.73;;;9.43;;
9964;SDS011;5023;53.554;9.964;2023-06-26T06:03:02;10.15;;;9.27;;
9964;SDS011;5023;53.554;9.964;2023-06-26T06:08:04;10.55;;;9.43;;
9964;SDS011;5023;53.554;9.964;2023-06-26T06:13:07;11.15;;;10.13;;
9964;SDS011;5023;53.554;9.964;2023-06-26T06:18:10;9.55;;;8.85;;
9964;SDS011;5023;53.554;9.964;2023-06-26T06:23:12;10.50;;;9.52;;
9964;SDS011;5023;53.554;9.964;2023-06-26T06:28:14;10.50;;;9.35;;
9964;SDS011;5023;53.554;9.964;2023-06-26T06:33:18;9.88;;;9.10;;
9964;SDS011;5023;53.554;9.964;2023-06-26T06:38:20;10.90;;;10.00;;
9964;SDS011;5023;53.554;9.964;2023-06-26T06:43:22;10.52;;;9.68;;
9964;SDS011;5023;53.554;9.964;2023-06-26T06:48:25;9.32;;;8.52;;
9964;SDS011;5023;53.554;9.964;2023-06-26T06:53:27;9.57;;;8.43;;
9964;SDS011;5023;53.554;9.964;2023-06-26T06:58:29;9.32;;;8.50;;
9964;SDS011;5023;53.554;9.964;2023-06-26T07:03:35;9.73;;;8.80;;
9964;SDS011;5023;53.554;9.964;2023-06-26T07:08:39;9.93;;;8.88;;
9964;SDS011;5023;53.554;9.964;2023-06-26T07:13:44;9.02;;;8.27;;
9964;SDS011;5023;53.554;9.964;2023-06-26T07:18:48;9.50;;;8.70;;
9964;SDS011;5023;53.554;9.964;2023-06-26T07:23:55;9.48;;;8.68;;
9964;SDS011;5023;53.554;9.964;2023-06-26T07:28:57;8.75;;;7.95;;
9964;SDS011;5023;53.554;9.964;2023-06-26T07:34:00;9.57;;;8.75;;
9964;SDS011;5023;53.554;9.964;2023-06-26T07:39:02;9.95;;;8.98;;
9964;SDS011;5023;53.554;9.964;2023-06-26T07:44:04;9.02;;;8.32;;
9964;SDS011;5023;53.554;9.964;2023-06-26T07:49:07;9.18;;;8.30;;
9964;SDS011;5023;53.554;9.964;2023-06-26T07:54:09;8.80;;;8.10;;
9964;SDS011;5023;53.554;9.964;2023-06-26T07:59:11;8.55;;;7.65;;
9964;SDS011;5023;53.554;9.964;2023-06-26T08:04:17;9.25;;;8.45;;
9964;SDS011;5023;53.554;9.964;2023-06-26T08:09:19;9.38;;;8.48;;
9964;SDS011;5023;53.554;9.964;2023-06-26T08:14:22;11.27;;;8.90;;
9964;SDS011;5023;53.554;9.964;2023-06-26T08:19:25;9.57;;;8.15;;
9964;SDS011;5023;53.554;9.964;2023-06-26T08:24:27;13.25;;;9.32;;
9964;SDS011;5023;53.554;9.964;2023-06-26T08:29:29;10.38;;;9.27;;
9964;SDS011;5023;53.554;9.964;2023-06-26T08:34:33;9.25;;;8.32;;
9964;SDS011;5023;53.554;9.964;2023-06-26T08:39:34;8.10;;;7.28;;
9964;SDS011;5023;53.554;9.964;2023-06-26T08:44:36;7.75;;;7.05;;
9964;SDS011;5023;53.554;9.964;2023-06-26T08:49:45;8.30;;;7.50;;
9964;SDS011;5023;53.554;9.964;2023-06-26T08:54:54;8.55;;;7.70;;
9964;SDS011;5023;53.554;9.964;2023-06-26T09:00:00;9.30;;;8.40;;
9964;SDS011;5023;53.554;9.964;2023-06-26T09:05:04;9.23;;;8.35;;
9964;SDS011;5023;53.554;9.964;2023-06-26T09:10:08;10.13;;;9.20;;
9964;SDS011;5023;53.554;9.964;2023-06-26T09:15:13;10.85;;;9.80;;
9964;SDS011;5023;53.554;9.964;2023-06-26T09:20:18;10.80;;;9.82;;
9964;SDS011;5023;53.554;9.964;2023-06-26T09:25:20;11.60;;;10.60;;
9964;SDS011;5023;53.554;9.964;2023-06-26T09:30:23;11.57;;;10.05;;
9964;SDS011;5023;53.554;9.964;2023-06-26T09:35:28;11.48;;;10.57;;
9964;SDS011;5023;53.554;9.964;2023-06-26T09:40:32;10.82;;;9.85;;
9964;SDS011;5023;53.554;9.964;2023-06-26T09:45:35;23.58;;;17.45;;
9964;SDS011;5023;53.554;9.964;2023-06-26T09:50:39;10.45;;;9.55;;
9964;SDS011;5023;53.554;9.964;2023-06-26T09:55:47;11.18;;;9.95;;
9964;SDS011;5023;53.554;9.964;2023-06-26T10:00:49;12.40;;;10.82;;
9964;SDS011;5023;53.554;9.964;2023-06-26T10:05:54;14.40;;;10.95;;
9964;SDS011;5023;53.554;9.964;2023-06-26T10:10:57;14.95;;;13.52;;
9964;SDS011;5023;53.554;9.964;2023-06-26T10:15:59;14.23;;;12.85;;
9964;SDS011;5023;53.554;9.964;2023-06-26T10:21:06;14.63;;;13.23;;
9964;SDS011;5023;53.554;9.964;2023-06-26T10:26:12;13.13;;;11.77;;
9964;SDS011;5023;53.554;9.964;2023-06-26T10:31:17;12.05;;;10.23;;
9964;SDS011;5023;53.554;9.964;2023-06-26T10:36:28;11.13;;;9.23;;
9964;SDS011;5023;53.554;9.964;2023-06-26T10:41:36;12.50;;;9.70;;
9964;SDS011;5023;53.554;9.964;2023-06-26T10:46:48;8.63;;;7.82;;
9964;SDS011;5023;53.554;9.964;2023-06-26T10:51:54;7.97;;;7.25;;
9964;SDS011;5023;53.554;9.964;2023-06-26T10:56:58;7.63;;;7.00;;
9964;SDS011;5023;53.554;9.964;2023-06-26T11:02:03;9.50;;;8.63;;
9964;SDS011;5023;53.554;9.964;2023-06-26T11:07:18;9.77;;;8.88;;
9964;SDS011;5023;53.554;9.964;2023-06-26T11:12:37;10.30;;;9.20;;
9964;SDS011;5023;53.554;9.964;2023-06-26T11:17:42;12.98;;;10.00;;
9964;SDS011;5023;53.554;9.964;2023-06-26T11:22:46;10.18;;;8.57;;
9964;SDS011;5023;53.554;9.964;2023-06-26T11:27:53;9.63;;;6.97;;
9964;SDS011;5023;53.554;9.964;2023-06-26T11:33:02;11.25;;;7.93;;
9964;SDS011;5023;53.554;9.964;2023-06-26T11:38:06;11.95;;;7.20;;
9964;SDS011;5023;53.554;9.964;2023-06-26T11:43:10;9.27;;;5.65;;
9964;SDS011;5023;53.554;9.964;2023-06-26T11:48:13;7.03;;;5.00;;
9964;SDS011;5023;53.554;9.964;2023-06-26T11:53:17;15.77;;;9.40;;
9964;SDS011;5023;53.554;9.964;2023-06-26T11:58:19;6.40;;;3.63;;
9964;SDS011;5023;53.554;9.964;2023-06-26T12:03:21;8.93;;;5.03;;
9964;SDS011;5023;53.554;9.964;2023-06-26T12:08:25;6.00;;;3.00;;
9964;SDS011;5023;53.554;9.964;2023-06-26T12:13:27;6.43;;;2.92;;
9964;SDS011;5023;53.554;9.964;2023-06-26T12:18:32;5.70;;;3.30;;
9964;SDS011;5023;53.554;9.964;2023-06-26T12:23:40;5.78;;;3.60;;
9964;SDS011;5023;53.554;9.964;2023-06-26T12:28:44;6.22;;;3.60;;
9964;SDS011;5023;53.554;9.964;2023-06-26T12:33:46;5.93;;;3.60;;
9964;SDS011;5023;53.554;9.964;2023-06-26T12:38:49;8.20;;;3.08;;
9964;SDS011;5023;53.554;9.964;2023-06-26T12:43:55;10.07;;;3.67;;
9964;SDS011;5023;53.554;9.964;2023-06-26T12:48:57;6.68;;;4.95;;
9964;SDS011;5023;53.554;9.964;2023-06-26T12:54:00;7.63;;;3.33;;
9964;SDS011;5023;53.554;9.964;2023-06-26T12:59:02;4.25;;;3.05;;
9964;SDS011;5023;53.554;9.964;2023-06-26T13:04:05;4.45;;;3.20;;
9964;SDS011;5023;53.554;9.964;2023-06-26T13:09:10;5.40;;;3.08;;
9964;SDS011;5023;53.554;9.964;2023-06-26T13:14:12;2.80;;;2.50;;
9964;SDS011;5023;53.554;9.964;2023-06-26T13:19:14;4.60;;;2.88;;
9964;SDS011;5023;53.554;9.964;2023-06-26T13:24:17;3.45;;;2.63;;
9964;SDS011;5023;53.554;9.964;2023-06-26T13:29:19;3.45;;;2.47;;
9964;SDS011;5023;53.554;9.964;2023-06-26T13:34:21;5.65;;;2.70;;
9964;SDS011;5023;53.554;9.964;2023-06-26T13:39:25;3.17;;;2.05;;
9964;SDS011;5023;53.554;9.964;2023-06-26T13:44:27;5.30;;;2.30;;
9964;SDS011;5023;53.554;9.964;2023-06-26T13:49:29;3.97;;;2.53;;
9964;SDS011;5023;53.554;9.964;2023-06-26T13:54:33;5.38;;;3.25;;
9964;SDS011;5023;53.554;9.964;2023-06-26T13:59:36;5.30;;;2.67;;
9964;SDS011;5023;53.554;9.964;2023-06-26T14:04:39;5.38;;;2.72;;
9964;SDS011;5023;53.554;9.964;2023-06-26T14:09:43;5.30;;;2.90;;
9964;SDS011;5023;53.554;9.964;2023-06-26T14:14:44;2.80;;;2.17;;
9964;SDS011;5023;53.554;9.964;2023-06-26T14:19:46;3.30;;;2.38;;
9964;SDS011;5023;53.554;9.964;2023-06-26T14:24:50;3.20;;;2.40;;
9964;SDS011;5023;53.554;9.964;2023-06-26T14:29:51;3.67;;;2.05;;
9964;SDS011;5023;53.554;9.964;2023-06-26T14:34:53;2.75;;;2.05;;
9964;SDS011;5023;53.554;9.964;2023-06-26T14:39:57;6.97;;;2.60;;
9964;SDS011;5023;53.554;9.964;2023-06-26T14:44:59;3.60;;;2.80;;
9964;SDS011;5023;53.554;9.964;2023-06-26T14:50:01;3.78;;;2.17;;
9964;SDS011;5023;53.554;9.964;2023-06-26T14:55:05;2.22;;;2.10;;
9964;SDS011;5023;53.554;9.964;2023-06-26T15:00:07;3.60;;;2.13;;
9964;SDS011;5023;53.554;9.964;2023-06-26T15:05:10;2.83;;;1.90;;
9964;SDS011;5023;53.554;9.964;2023-06-26T15:10:13;2.72;;;2.00;;
9964;SDS011;5023;53.554;9.964;2023-06-26T15:15:16;3.88;;;1.90;;
9964;SDS011;5023;53.554;9.964;2023-06-26T15:20:18;3.70;;;2.22;;
9964;SDS011;5023;53.554;9.964;2023-06-26T15:25:22;2.33;;;1.98;;
9964;SDS011;5023;53.554;9.964;2023-06-26T15:30:23;1.85;;;1.73;;
9964;SDS011;5023;53.554;9.964;2023-06-26T15:35:25;7.30;;;4.00;;
9964;SDS011;5023;53.554;9.964;2023-06-26T15:40:30;4.78;;;2.10;;
9964;SDS011;5023;53.554;9.964;2023-06-26T15:45:32;4.30;;;3.60;;
9964;SDS011;5023;53.554;9.964;2023-06-26T15:50:34;3.67;;;1.90;;
9964;SDS011;5023;53.554;9.964;2023-06-26T15:55:37;2.40;;;1.83;;
9964;SDS011;5023;53.554;9.964;2023-06-26T16:00:39;2.92;;;2.10;;
9964;SDS011;5023;53.554;9.964;2023-06-26T16:05:41;2.72;;;2.20;;
9964;SDS011;5023;53.554;9.964;2023-06-26T16:10:44;3.50;;;3.13;;
9964;SDS011;5023;53.554;9.964;2023-06-26T16:15:46;3.40;;;3.10;;
9964;SDS011;5023;53.554;9.964;2023-06-26T16:20:48;3.20;;;2.90;;
9964;SDS011;5023;53.554;9.964;2023-06-26T16:25:52;2.67;;;2.20;;
9964;SDS011;5023;53.554;9.964;2023-06-26T16:30:54;2.90;;;2.40;;
9964;SDS011;5023;53.554;9.964;2023-06-26T16:35:56;3.63;;;2.10;;
9964;SDS011;5023;53.554;9.964;2023-06-26T16:40:59;3.50;;;3.20;;
9964;SDS011;5023;53.554;9.964;2023-06-26T16:46:01;3.90;;;2.50;;
9964;SDS011;5023;53.554;9.964;2023-06-26T16:51:03;3.35;;;2.50;;
9964;SDS011;5023;53.554;9.964;2023-06-26T16:56:07;4.40;;;3.00;;
9964;SDS011;5023;53.554;9.964;2023-06-26T17:01:09;4.18;;;2.70;;
9964;SDS011;5023;53.554;9.964;2023-06-26T17:06:10;4.70;;;2.70;;
9964;SDS011;5023;53.554;9.964;2023-06-26T17:11:14;12.02;;;7.43;;
9964;SDS011;5023;53.554;9.964;2023-06-26T17:16:17;4.28;;;2.90;;
9964;SDS011;5023;53.554;9.964;2023-06-26T17:21:19;10.27;;;3.10;;
9964;SDS011;5023;53.554;9.964;2023-06-26T17:26:23;5.30;;;3.35;;
9964;SDS011;5023;53.554;9.964;2023-06-26T17:31:25;7.65;;;3.80;;
9964;SDS011;5023;53.554;9.964;2023-06-26T17:36:27;5.53;;;3.50;;
9964;SDS011;5023;53.554;9.964;2023-06-26T17:41:30;5.30;;;3.03;;
9964;SDS011;5023;53.554;9.964;2023-06-26T17:46:32;3.60;;;3.10;;
9964;SDS011;5023;53.554;9.964;2023-06-26T17:51:34;6.25;;;3.15;;
9964;SDS011;5023;53.554;9.964;2023-06-26T17:56:37;5.53;;;2.75;;
9964;SDS011;5023;53.554;9.964;2023-06-26T18:01:39;8.48;;;3.13;;
9964;SDS011;5023;53.554;9.964;2023-06-26T18:06:42;8.00;;;2.90;;
9964;SDS011;5023;53.554;9.964;2023-06-26T18:11:45;5.97;;;2.90;;
9964;SDS011;5023;53.554;9.964;2023-06-26T18:16:47;7.85;;;3.15;;
9964;SDS011;5023;53.554;9.964;2023-06-26T18:21:49;5.70;;;2.85;;
9964;SDS011;5023;53.554;9.964;2023-06-26T18:26:52;6.85;;;3.88;;
9964;SDS011;5023;53.554;9.964;2023-06-26T18:31:54;8.77;;;3.17;;
9964;SDS011;5023;53.554;9.964;2023-06-26T18:36:56;6.43;;;3.05;;
9964;SDS011;5023;53.554;9.964;2023-06-26T18:42:00;6.32;;;3.70;;
9964;SDS011;5023;53.554;9.964;2023-06-26T18:47:03;4.03;;;2.65;;
9964;SDS011;5023;53.554;9.964;2023-06-26T18:52:06;8.48;;;2.90;;
9964;SDS011;5023;53.554;9.964;2023-06-26T18:57:09;5.05;;;2.92;;
9964;SDS011;5023;53.554;9.964;2023-06-26T19:02:11;5.57;;;2.38;;
9964;SDS011;5023;53.554;9.964;2023-06-26T19:07:13;5.85;;;2.47;;
9964;SDS011;5023;53.554;9.964;2023-06-26T19:12:16;7.70;;;6.55;;
9964;SDS011;5023;53.554;9.964;2023-06-26T19:17:19;7.70;;;3.00;;
9964;SDS011;5023;53.554;9.964;2023-06-26T19:22:22;6.25;;;2.95;;
9964;SDS011;5023;53.554;9.964;2023-06-26T19:27:28;7.63;;;3.08;;
9964;SDS011;5023;53.554;9.964;2023-06-26T19:32:31;6.47;;;3.35;;
9964;SDS011;5023;53.554;9.964;2023-06-26T19:37:33;8.85;;;3.05;;
9964;SDS011;5023;53.554;9.964;2023-06-26T19:42:36;6.75;;;3.20;;
9964;SDS011;5023;53.554;9.964;2023-06-26T19:47:38;5.93;;;3.08;;
9964;SDS011;5023;53.554;9.964;2023-06-26T19:52:40;6.60;;;3.67;;
9964;SDS011;5023;53.554;9.964;2023-06-26T19:57:43;6.40;;;3.40;;
9964;SDS011;5023;53.554;9.964;2023-06-26T20:02:45;6.88;;;3.25;;
9964;SDS011;5023;53.554;9.964;2023-06-26T20:07:48;6.20;;;3.30;;
9964;SDS011;5023;53.554;9.964;2023-06-26T20:12:51;6.53;;;3.45;;
9964;SDS011;5023;53.554;9.964;2023-06-26T20:17:53;6.80;;;3.60;;
9964;SDS011;5023;53.554;9.964;2023-06-26T20:22:55;12.88;;;8.35;;
9964;SDS011;5023;53.554;9.964;2023-06-26T20:27:59;6.35;;;3.33;;
9964;SDS011;5023;53.554;9.964;2023-06-26T20:33:01;10.15;;;6.60;;
9964;SDS011;5023;53.554;9.964;2023-06-26T20:38:03;7.45;;;3.30;;
9964;SDS011;5023;53.554;9.964;2023-06-26T20:43:06;6.93;;;3.75;;
9964;SDS011;5023;53.554;9.964;2023-06-26T20:48:09;7.63;;;3.63;;
9964;SDS011;5023;53.554;9.964;2023-06-26T20:53:12;10.13;;;5.47;;
9964;SDS011;5023;53.554;9.964;2023-06-26T20:58:16;13.38;;;4.72;;
9964;SDS011;5023;53.554;9.964;2023-06-26T21:03:18;9.27;;;4.18;;
9964;SDS011;5023;53.554;9.964;2023-06-26T21:08:19;9.13;;;3.35;;
9964;SDS011;5023;53.554;9.964;2023-06-26T21:13:23;6.72;;;3.65;;
9964;SDS011;5023;53.554;9.964;2023-06-26T21:18:25;8.20;;;3.38;;
9964;SDS011;5023;53.554;9.964;2023-06-26T21:23:27;10.93;;;4.03;;
9964;SDS011;5023;53.554;9.964;2023-06-26T21:28:30;10.63;;;3.70;;
9964;SDS011;5023;53.554;9.964;2023-06-26T21:33:32;7.32;;;3.83;;
9964;SDS011;5023;53.554;9.964;2023-06-26T21:38:34;6.85;;;3.65;;
9964;SDS011;5023;53.554;9.964;2023-06-26T21:43:37;9.95;;;3.50;;
9964;SDS011;5023;53.554;9.964;2023-06-26T21:48:39;6.68;;;3.88;;
9964;SDS011;5023;53.554;9.964;2023-06-26T21:53:42;10.63;;;3.55;;
9964;SDS011;5023;53.554;9.964;2023-06-26T21:58:45;9.07;;;3.85;;
9964;SDS011;5023;53.554;9.964;2023-06-26T22:03:47;8.70;;;3.78;;
9964;SDS011;5023;53.554;9.964;2023-06-26T22:08:49;5.53;;;3.60;;
9964;SDS011;5023;53.554;9.964;2023-06-26T22:13:52;12.35;;;4.07;;
9964;SDS011;5023;53.554;9.964;2023-06-26T22:18:54;10.43;;;5.13;;
9964;SDS011;5023;53.554;9.964;2023-06-26T22:23:56;5.07;;;2.95;;
9964;SDS011;5023;53.554;9.964;2023-06-26T22:29:00;6.65;;;3.60;;
9964;SDS011;5023;53.554;9.964;2023-06-26T22:34:03;9.38;;;3.85;;
9964;SDS011;5023;53.554;9.964;2023-06-26T22:39:05;7.07;;;3.95;;
9964;SDS011;5023;53.554;9.964;2023-06-26T22:44:08;11.13;;;5.03;;
9964;SDS011;5023;53.554;9.964;2023-06-26T22:49:11;8.65;;;5.30;;
9964;SDS011;5023;53.554;9.964;2023-06-26T22:54:13;9.85;;;3.70;;
9964;SDS011;5023;53.554;9.964;2023-06-26T22:59:16;17.55;;;11.35;;
9964;SDS011;5023;53.554;9.964;2023-06-26T23:04:18;13.55;;;6.15;;
9964;SDS011;5023;53.554;9.964;2023-06-26T23:09:20;10.80;;;3.80;;
9964;SDS011;5023;53.554;9.964;2023-06-26T23:14:23;7.85;;;4.32;;
9964;SDS011;5023;53.554;9.964;2023-06-26T23:19:25;11.57;;;6.05;;
9964;SDS011;5023;53.554;9.964;2023-06-26T23:24:28;11.43;;;5.88;;
9964;SDS011;5023;53.554;9.964;2023-06-26T23:29:33;10.32;;;4.68;;
9964;SDS011;5023;53.554;9.964;2023-06-26T23:34:37;10.68;;;4.22;;
9964;SDS011;5023;53.554;9.964;2023-06-26T23:39:39;7.85;;;3.72;;
9964;SDS011;5023;53.554;9.964;2023-06-26T23:44:43;8.77;;;5.03;;
9964;SDS011;5023;53.554;9.964;2023-06-26T23:49:49;8.27;;;3.47;;
9964;SDS011;5023;53.554;9.964;2023-06-26T23:54:51;15.30;;;10.05;;
9964;SDS011;5023;53.554;9.964;2023-06-26T23:59:55;12.68;;;6.43;;
